sensor_id;sensor_type;location;lat;lon;timestamp;P1;durP1;ratioP1;P2;durP2;ratioP2
67867;SDS011;54672;46.096;14.470;2023-07-20T00:01:25;12.13;;;6.40;;
67867;SDS011;54672;46.096;14.470;2023-07-20T00:03:51;11.73;;;6.18;;
67867;SDS011;54672;46.096;14.470;2023-07-20T00:06:22;11.27;;;6.65;;
67867;SDS011;54672;46.096;14.470;2023-07-20T00:08:49;11.93;;;6.03;;
67867;SDS011;54672;46.096;14.470;2023-07-20T00:11:15;10.27;;;6.68;;
67867;SDS011;54672;46.096;14.470;2023-07-20T00:13:41;12.27;;;6.65;;
67867;SDS011;54672;46.096;14.470;2023-07-20T00:16:06;9.93;;;6.63;;
67867;SDS011;54672;46.096;14.470;2023-07-20T00:18:32;15.30;;;7.00;;
67867;SDS011;54672;46.096;14.470;2023-07-20T00:20:57;12.95;;;7.40;;
67867;SDS011;54672;46.096;14.470;2023-07-20T00:23:25;11.18;;;6.95;;
67867;SDS011;54672;46.096;14.470;2023-07-20T00:25:50;12.00;;;7.45;;
67867;SDS011;54672;46.096;14.470;2023-07-20T00:28:16;12.45;;;7.55;;
67867;SDS011;54672;46.096;14.470;2023-07-20T00:30:42;14.60;;;7.90;;
67867;SDS011;54672;46.096;14.470;2023-07-20T00:33:10;13.65;;;7.32;;
67867;SDS011;54672;46.096;14.470;2023-07-20T00:35:37;11.68;;;7.50;;
67867;SDS011;54672;46.096;14.470;2023-07-20T00:38:03;13.13;;;7.30;;
67867;SDS011;54672;46.096;14.470;2023-07-20T00:40:34;13.88;;;7.22;;
67867;SDS011;54672;46.096;14.470;2023-07-20T00:43:01;12.30;;;7.60;;
67867;SDS011;54672;46.096;14.470;2023-07-20T00:45:27;15.75;;;7.78;;
67867;SDS011;54672;46.096;14.470;2023-07-20T00:47:52;13.75;;;7.40;;
67867;SDS011;54672;46.096;14.470;2023-07-20T00:50:18;12.90;;;7.43;;
67867;SDS011;54672;46.096;14.470;2023-07-20T00:52:44;16.05;;;7.85;;
67867;SDS011;54672;46.096;14.470;2023-07-20T00:55:09;12.32;;;7.00;;
67867;SDS011;54672;46.096;14.470;2023-07-20T00:57:35;13.05;;;7.13;;
67867;SDS011;54672;46.096;14.470;2023-07-20T01:00:01;11.60;;;6.45;;
67867;SDS011;54672;46.096;14.470;2023-07-20T01:02:27;12.85;;;6.45;;
67867;SDS011;54672;46.096;14.470;2023-07-20T01:04:52;13.30;;;6.97;;
67867;SDS011;54672;46.096;14.470;2023-07-20T01:07:30;13.57;;;7.80;;
67867;SDS011;54672;46.096;14.470;2023-07-20T01:12:51;10.32;;;6.25;;
67867;SDS011;54672;46.096;14.470;2023-07-20T01:15:17;9.52;;;6.10;;
67867;SDS011;54672;46.096;14.470;2023-07-20T01:17:43;12.57;;;6.40;;
67867;SDS011;54672;46.096;14.470;2023-07-20T01:20:10;14.73;;;6.05;;
67867;SDS011;54672;46.096;14.470;2023-07-20T01:30:58;11.63;;;7.25;;
67867;SDS011;54672;46.096;14.470;2023-07-20T01:33:42;10.30;;;6.30;;
67867;SDS011;54672;46.096;14.470;2023-07-20T01:36:09;10.40;;;6.55;;
67867;SDS011;54672;46.096;14.470;2023-07-20T01:38:36;11.38;;;6.40;;
67867;SDS011;54672;46.096;14.470;2023-07-20T01:41:02;15.95;;;7.43;;
67867;SDS011;54672;46.096;14.470;2023-07-20T01:43:29;13.25;;;6.57;;
67867;SDS011;54672;46.096;14.470;2023-07-20T01:45:54;14.23;;;7.70;;
67867;SDS011;54672;46.096;14.470;2023-07-20T01:48:20;11.45;;;6.80;;
67867;SDS011;54672;46.096;14.470;2023-07-20T01:50:45;14.77;;;7.10;;
67867;SDS011;54672;46.096;14.470;2023-07-20T01:53:11;10.85;;;6.75;;
67867;SDS011;54672;46.096;14.470;2023-07-20T01:55:36;13.00;;;7.05;;
67867;SDS011;54672;46.096;14.470;2023-07-20T01:58:02;15.20;;;7.15;;
67867;SDS011;54672;46.096;14.470;2023-07-20T02:00:28;12.13;;;7.28;;
67867;SDS011;54672;46.096;14.470;2023-07-20T02:02:54;13.23;;;6.78;;
67867;SDS011;54672;46.096;14.470;2023-07-20T02:05:19;16.40;;;8.40;;
67867;SDS011;54672;46.096;14.470;2023-07-20T02:07:45;12.32;;;7.60;;
67867;SDS011;54672;46.096;14.470;2023-07-20T02:10:10;13.73;;;7.90;;
67867;SDS011;54672;46.096;14.470;2023-07-20T02:12:36;12.98;;;7.53;;
67867;SDS011;54672;46.096;14.470;2023-07-20T02:15:02;13.18;;;7.00;;
67867;SDS011;54672;46.096;14.470;2023-07-20T02:17:28;11.68;;;6.75;;
67867;SDS011;54672;46.096;14.470;2023-07-20T02:19:53;14.07;;;7.10;;
67867;SDS011;54672;46.096;14.470;2023-07-20T02:22:20;10.73;;;6.55;;
67867;SDS011;54672;46.096;14.470;2023-07-20T02:24:45;11.35;;;6.45;;
67867;SDS011;54672;46.096;14.470;2023-07-20T02:27:11;10.80;;;6.35;;
67867;SDS011;54672;46.096;14.470;2023-07-20T02:29:37;10.45;;;6.75;;
67867;SDS011;54672;46.096;14.470;2023-07-20T02:32:03;15.13;;;6.57;;
67867;SDS011;54672;46.096;14.470;2023-07-20T02:34:28;15.23;;;6.97;;
67867;SDS011;54672;46.096;14.470;2023-07-20T02:36:54;11.43;;;6.85;;
67867;SDS011;54672;46.096;14.470;2023-07-20T02:39:21;16.98;;;7.47;;
67867;SDS011;54672;46.096;14.470;2023-07-20T02:41:47;14.80;;;6.82;;
67867;SDS011;54672;46.096;14.470;2023-07-20T02:44:13;9.82;;;5.63;;
67867;SDS011;54672;46.096;14.470;2023-07-20T02:46:39;10.40;;;6.15;;
67867;SDS011;54672;46.096;14.470;2023-07-20T02:49:04;11.90;;;6.18;;
67867;SDS011;54672;46.096;14.470;2023-07-20T02:51:29;12.25;;;7.13;;
67867;SDS011;54672;46.096;14.470;2023-07-20T02:53:55;11.23;;;6.35;;
67867;SDS011;54672;46.096;14.470;2023-07-20T02:56:20;12.80;;;6.38;;
67867;SDS011;54672;46.096;14.470;2023-07-20T02:58:47;14.07;;;6.97;;
67867;SDS011;54672;46.096;14.470;2023-07-20T03:01:13;10.48;;;6.78;;
67867;SDS011;54672;46.096;14.470;2023-07-20T03:03:40;16.80;;;7.72;;
67867;SDS011;54672;46.096;14.470;2023-07-20T03:06:10;15.20;;;8.23;;
67867;SDS011;54672;46.096;14.470;2023-07-20T03:08:39;16.08;;;8.38;;
67867;SDS011;54672;46.096;14.470;2023-07-20T03:11:06;15.63;;;7.85;;
67867;SDS011;54672;46.096;14.470;2023-07-20T03:13:31;15.27;;;8.45;;
67867;SDS011;54672;46.096;14.470;2023-07-20T03:15:57;17.85;;;8.35;;
67867;SDS011;54672;46.096;14.470;2023-07-20T03:18:22;14.52;;;7.93;;
67867;SDS011;54672;46.096;14.470;2023-07-20T03:20:48;18.05;;;8.25;;
67867;SDS011;54672;46.096;14.470;2023-07-20T03:23:13;17.38;;;8.13;;
67867;SDS011;54672;46.096;14.470;2023-07-20T03:25:40;13.98;;;8.07;;
67867;SDS011;54672;46.096;14.470;2023-07-20T03:28:06;18.85;;;8.45;;
67867;SDS011;54672;46.096;14.470;2023-07-20T03:30:31;14.95;;;8.70;;
67867;SDS011;54672;46.096;14.470;2023-07-20T03:32:57;16.92;;;8.27;;
67867;SDS011;54672;46.096;14.470;2023-07-20T03:35:22;17.58;;;8.88;;
67867;SDS011;54672;46.096;14.470;2023-07-20T03:37:48;15.82;;;8.63;;
67867;SDS011;54672;46.096;14.470;2023-07-20T03:40:13;22.13;;;9.18;;
67867;SDS011;54672;46.096;14.470;2023-07-20T03:42:40;18.23;;;9.30;;
67867;SDS011;54672;46.096;14.470;2023-07-20T03:45:05;19.10;;;9.13;;
67867;SDS011;54672;46.096;14.470;2023-07-20T03:47:31;17.73;;;8.63;;
67867;SDS011;54672;46.096;14.470;2023-07-20T03:49:57;20.25;;;9.48;;
67867;SDS011;54672;46.096;14.470;2023-07-20T03:52:22;18.65;;;9.13;;
67867;SDS011;54672;46.096;14.470;2023-07-20T03:54:48;17.45;;;9.30;;
67867;SDS011;54672;46.096;14.470;2023-07-20T03:57:13;17.92;;;8.20;;
67867;SDS011;54672;46.096;14.470;2023-07-20T03:59:39;19.15;;;8.55;;
67867;SDS011;54672;46.096;14.470;2023-07-20T04:02:04;16.92;;;8.05;;
67867;SDS011;54672;46.096;14.470;2023-07-20T04:04:30;18.42;;;9.25;;
67867;SDS011;54672;46.096;14.470;2023-07-20T04:06:56;17.25;;;8.30;;
67867;SDS011;54672;46.096;14.470;2023-07-20T04:09:22;17.20;;;8.45;;
67867;SDS011;54672;46.096;14.470;2023-07-20T04:11:47;17.35;;;9.32;;
67867;SDS011;54672;46.096;14.470;2023-07-20T04:14:13;18.38;;;9.18;;
67867;SDS011;54672;46.096;14.470;2023-07-20T04:16:38;15.98;;;9.38;;
67867;SDS011;54672;46.096;14.470;2023-07-20T04:19:04;22.35;;;9.85;;
67867;SDS011;54672;46.096;14.470;2023-07-20T04:21:29;19.73;;;9.38;;
67867;SDS011;54672;46.096;14.470;2023-07-20T04:23:54;23.15;;;9.93;;
67867;SDS011;54672;46.096;14.470;2023-07-20T04:26:20;18.65;;;8.82;;
67867;SDS011;54672;46.096;14.470;2023-07-20T04:28:45;18.65;;;8.82;;
67867;SDS011;54672;46.096;14.470;2023-07-20T04:31:14;17.67;;;9.70;;
67867;SDS011;54672;46.096;14.470;2023-07-20T04:33:41;16.48;;;9.35;;
67867;SDS011;54672;46.096;14.470;2023-07-20T04:36:07;17.23;;;9.48;;
67867;SDS011;54672;46.096;14.470;2023-07-20T04:38:33;18.70;;;8.85;;
67867;SDS011;54672;46.096;14.470;2023-07-20T04:40:58;15.82;;;9.20;;
67867;SDS011;54672;46.096;14.470;2023-07-20T04:43:24;19.05;;;9.02;;
67867;SDS011;54672;46.096;14.470;2023-07-20T04:45:49;20.95;;;9.93;;
67867;SDS011;54672;46.096;14.470;2023-07-20T04:48:16;17.20;;;9.55;;
67867;SDS011;54672;46.096;14.470;2023-07-20T04:50:42;20.33;;;9.75;;
67867;SDS011;54672;46.096;14.470;2023-07-20T04:53:10;18.20;;;9.27;;
67867;SDS011;54672;46.096;14.470;2023-07-20T04:55:36;17.30;;;8.95;;
67867;SDS011;54672;46.096;14.470;2023-07-20T04:58:03;20.38;;;9.55;;
67867;SDS011;54672;46.096;14.470;2023-07-20T05:00:31;18.83;;;9.68;;
67867;SDS011;54672;46.096;14.470;2023-07-20T05:02:58;19.25;;;10.25;;
67867;SDS011;54672;46.096;14.470;2023-07-20T05:05:23;18.83;;;9.52;;
67867;SDS011;54672;46.096;14.470;2023-07-20T05:07:48;17.40;;;9.05;;
67867;SDS011;54672;46.096;14.470;2023-07-20T05:10:14;17.17;;;9.45;;
67867;SDS011;54672;46.096;14.470;2023-07-20T05:12:39;19.73;;;9.55;;
67867;SDS011;54672;46.096;14.470;2023-07-20T05:15:05;18.65;;;9.65;;
67867;SDS011;54672;46.096;14.470;2023-07-20T05:17:31;16.98;;;8.75;;
67867;SDS011;54672;46.096;14.470;2023-07-20T05:19:56;16.77;;;8.88;;
67867;SDS011;54672;46.096;14.470;2023-07-20T05:22:22;15.45;;;8.93;;
67867;SDS011;54672;46.096;14.470;2023-07-20T05:24:48;16.48;;;9.00;;
67867;SDS011;54672;46.096;14.470;2023-07-20T05:27:13;17.98;;;9.13;;
67867;SDS011;54672;46.096;14.470;2023-07-20T05:29:43;18.70;;;10.15;;
67867;SDS011;54672;46.096;14.470;2023-07-20T05:32:09;16.65;;;9.07;;
67867;SDS011;54672;46.096;14.470;2023-07-20T05:34:35;16.45;;;8.57;;
67867;SDS011;54672;46.096;14.470;2023-07-20T05:37:00;20.08;;;8.98;;
67867;SDS011;54672;46.096;14.470;2023-07-20T05:39:29;14.00;;;8.38;;
67867;SDS011;54672;46.096;14.470;2023-07-20T05:41:54;15.60;;;8.90;;
67867;SDS011;54672;46.096;14.470;2023-07-20T05:44:20;15.13;;;8.90;;
67867;SDS011;54672;46.096;14.470;2023-07-20T05:46:45;16.88;;;8.38;;
67867;SDS011;54672;46.096;14.470;2023-07-20T05:49:10;13.25;;;8.15;;
67867;SDS011;54672;46.096;14.470;2023-07-20T05:51:36;12.80;;;7.47;;
67867;SDS011;54672;46.096;14.470;2023-07-20T05:54:01;17.88;;;7.72;;
67867;SDS011;54672;46.096;14.470;2023-07-20T05:56:27;14.77;;;8.13;;
67867;SDS011;54672;46.096;14.470;2023-07-20T05:58:52;13.60;;;7.70;;
67867;SDS011;54672;46.096;14.470;2023-07-20T06:01:18;16.85;;;7.65;;
67867;SDS011;54672;46.096;14.470;2023-07-20T06:03:44;14.02;;;7.72;;
67867;SDS011;54672;46.096;14.470;2023-07-20T06:06:09;13.75;;;8.02;;
67867;SDS011;54672;46.096;14.470;2023-07-20T06:08:37;12.80;;;7.57;;
67867;SDS011;54672;46.096;14.470;2023-07-20T06:11:02;11.07;;;7.20;;
67867;SDS011;54672;46.096;14.470;2023-07-20T06:13:28;13.48;;;7.32;;
67867;SDS011;54672;46.096;14.470;2023-07-20T06:15:53;13.38;;;7.35;;
67867;SDS011;54672;46.096;14.470;2023-07-20T06:18:20;10.38;;;6.75;;
67867;SDS011;54672;46.096;14.470;2023-07-20T06:20:49;12.85;;;7.55;;
67867;SDS011;54672;46.096;14.470;2023-07-20T06:23:15;11.20;;;7.13;;
67867;SDS011;54672;46.096;14.470;2023-07-20T06:25:41;12.70;;;6.82;;
67867;SDS011;54672;46.096;14.470;2023-07-20T06:28:07;11.95;;;7.15;;
67867;SDS011;54672;46.096;14.470;2023-07-20T06:30:33;14.57;;;7.63;;
67867;SDS011;54672;46.096;14.470;2023-07-20T06:33:00;17.38;;;7.80;;
67867;SDS011;54672;46.096;14.470;2023-07-20T06:35:26;10.68;;;7.10;;
67867;SDS011;54672;46.096;14.470;2023-07-20T06:37:52;11.13;;;7.40;;
67867;SDS011;54672;46.096;14.470;2023-07-20T06:40:17;11.13;;;7.45;;
67867;SDS011;54672;46.096;14.470;2023-07-20T06:42:43;12.30;;;7.10;;
67867;SDS011;54672;46.096;14.470;2023-07-20T06:45:09;10.38;;;7.03;;
67867;SDS011;54672;46.096;14.470;2023-07-20T06:47:38;15.07;;;7.40;;
67867;SDS011;54672;46.096;14.470;2023-07-20T06:50:05;11.20;;;6.75;;
67867;SDS011;54672;46.096;14.470;2023-07-20T06:52:31;8.60;;;6.05;;
67867;SDS011;54672;46.096;14.470;2023-07-20T06:54:57;9.18;;;5.97;;
67867;SDS011;54672;46.096;14.470;2023-07-20T06:57:22;7.30;;;5.53;;
67867;SDS011;54672;46.096;14.470;2023-07-20T06:59:48;7.85;;;6.07;;
67867;SDS011;54672;46.096;14.470;2023-07-20T07:02:13;8.73;;;5.63;;
67867;SDS011;54672;46.096;14.470;2023-07-20T07:04:39;8.25;;;6.00;;
67867;SDS011;54672;46.096;14.470;2023-07-20T07:07:05;8.80;;;6.22;;
67867;SDS011;54672;46.096;14.470;2023-07-20T07:09:31;7.75;;;6.30;;
67867;SDS011;54672;46.096;14.470;2023-07-20T07:11:56;7.88;;;5.90;;
67867;SDS011;54672;46.096;14.470;2023-07-20T07:14:22;8.85;;;5.70;;
67867;SDS011;54672;46.096;14.470;2023-07-20T07:16:47;9.20;;;6.30;;
67867;SDS011;54672;46.096;14.470;2023-07-20T07:19:13;7.32;;;5.78;;
67867;SDS011;54672;46.096;14.470;2023-07-20T07:21:38;8.65;;;5.43;;
67867;SDS011;54672;46.096;14.470;2023-07-20T07:24:04;6.88;;;5.68;;
67867;SDS011;54672;46.096;14.470;2023-07-20T07:26:32;6.47;;;5.40;;
67867;SDS011;54672;46.096;14.470;2023-07-20T07:28:58;7.53;;;5.05;;
67867;SDS011;54672;46.096;14.470;2023-07-20T07:31:24;6.10;;;4.70;;
67867;SDS011;54672;46.096;14.470;2023-07-20T07:33:50;5.88;;;5.10;;
67867;SDS011;54672;46.096;14.470;2023-07-20T07:36:16;8.57;;;4.90;;
67867;SDS011;54672;46.096;14.470;2023-07-20T07:38:41;8.95;;;4.93;;
67867;SDS011;54672;46.096;14.470;2023-07-20T07:41:08;6.60;;;4.68;;
67867;SDS011;54672;46.096;14.470;2023-07-20T07:43:33;6.18;;;5.13;;
67867;SDS011;54672;46.096;14.470;2023-07-20T07:46:00;7.47;;;5.45;;
67867;SDS011;54672;46.096;14.470;2023-07-20T07:48:25;6.20;;;4.70;;
67867;SDS011;54672;46.096;14.470;2023-07-20T07:50:51;6.80;;;5.00;;
67867;SDS011;54672;46.096;14.470;2023-07-20T07:53:16;6.93;;;4.50;;
67867;SDS011;54672;46.096;14.470;2023-07-20T07:55:42;6.93;;;4.35;;
67867;SDS011;54672;46.096;14.470;2023-07-20T07:58:07;7.57;;;4.30;;
67867;SDS011;54672;46.096;14.470;2023-07-20T08:00:33;5.97;;;3.83;;
67867;SDS011;54672;46.096;14.470;2023-07-20T08:02:58;8.63;;;4.25;;
67867;SDS011;54672;46.096;14.470;2023-07-20T08:05:24;7.88;;;4.10;;
67867;SDS011;54672;46.096;14.470;2023-07-20T08:07:49;6.03;;;3.80;;
67867;SDS011;54672;46.096;14.470;2023-07-20T08:10:15;6.30;;;3.58;;
67867;SDS011;54672;46.096;14.470;2023-07-20T08:12:40;7.72;;;3.47;;
67867;SDS011;54672;46.096;14.470;2023-07-20T08:15:06;5.05;;;3.03;;
67867;SDS011;54672;46.096;14.470;2023-07-20T08:17:32;4.70;;;3.28;;
67867;SDS011;54672;46.096;14.470;2023-07-20T08:19:57;4.88;;;3.10;;
67867;SDS011;54672;46.096;14.470;2023-07-20T08:22:23;7.10;;;3.80;;
67867;SDS011;54672;46.096;14.470;2023-07-20T08:24:48;4.65;;;3.33;;
67867;SDS011;54672;46.096;14.470;2023-07-20T08:27:13;5.13;;;3.20;;
67867;SDS011;54672;46.096;14.470;2023-07-20T08:29:39;5.63;;;3.40;;
67867;SDS011;54672;46.096;14.470;2023-07-20T08:32:05;5.18;;;3.22;;
67867;SDS011;54672;46.096;14.470;2023-07-20T08:34:31;6.97;;;3.85;;
67867;SDS011;54672;46.096;14.470;2023-07-20T08:36:57;4.47;;;3.38;;
67867;SDS011;54672;46.096;14.470;2023-07-20T08:39:23;7.10;;;3.80;;
67867;SDS011;54672;46.096;14.470;2023-07-20T08:41:49;5.22;;;3.38;;
67867;SDS011;54672;46.096;14.470;2023-07-20T08:44:14;9.32;;;3.60;;
67867;SDS011;54672;46.096;14.470;2023-07-20T08:46:40;8.90;;;4.22;;
67867;SDS011;54672;46.096;14.470;2023-07-20T08:49:07;5.13;;;3.22;;
67867;SDS011;54672;46.096;14.470;2023-07-20T08:51:33;8.90;;;3.50;;
67867;SDS011;54672;46.096;14.470;2023-07-20T08:54:01;4.47;;;3.28;;
67867;SDS011;54672;46.096;14.470;2023-07-20T08:56:26;7.13;;;3.15;;
67867;SDS011;54672;46.096;14.470;2023-07-20T08:58:56;6.03;;;3.05;;
67867;SDS011;54672;46.096;14.470;2023-07-20T09:01:22;7.50;;;3.35;;
67867;SDS011;54672;46.096;14.470;2023-07-20T09:03:47;6.00;;;2.40;;
67867;SDS011;54672;46.096;14.470;2023-07-20T09:06:14;5.10;;;3.05;;
67867;SDS011;54672;46.096;14.470;2023-07-20T09:08:40;7.55;;;2.88;;
67867;SDS011;54672;46.096;14.470;2023-07-20T09:11:06;4.35;;;2.60;;
67867;SDS011;54672;46.096;14.470;2023-07-20T09:13:35;5.95;;;2.45;;
67867;SDS011;54672;46.096;14.470;2023-07-20T09:16:00;6.55;;;2.72;;
67867;SDS011;54672;46.096;14.470;2023-07-20T09:18:30;6.40;;;3.00;;
67867;SDS011;54672;46.096;14.470;2023-07-20T09:21:03;4.50;;;2.97;;
67867;SDS011;54672;46.096;14.470;2023-07-20T09:23:30;10.80;;;2.72;;
67867;SDS011;54672;46.096;14.470;2023-07-20T09:25:57;5.55;;;2.60;;
67867;SDS011;54672;46.096;14.470;2023-07-20T09:28:22;4.03;;;2.55;;
67867;SDS011;54672;46.096;14.470;2023-07-20T09:30:48;7.72;;;2.80;;
67867;SDS011;54672;46.096;14.470;2023-07-20T09:33:22;3.92;;;2.20;;
67867;SDS011;54672;46.096;14.470;2023-07-20T09:35:48;4.70;;;2.60;;
67867;SDS011;54672;46.096;14.470;2023-07-20T09:38:14;5.75;;;2.58;;
67867;SDS011;54672;46.096;14.470;2023-07-20T09:40:40;5.47;;;2.65;;
67867;SDS011;54672;46.096;14.470;2023-07-20T09:43:09;7.63;;;2.83;;
67867;SDS011;54672;46.096;14.470;2023-07-20T09:45:44;6.28;;;2.78;;
67867;SDS011;54672;46.096;14.470;2023-07-20T09:48:10;4.97;;;2.70;;
67867;SDS011;54672;46.096;14.470;2023-07-20T09:50:39;5.47;;;2.80;;
67867;SDS011;54672;46.096;14.470;2023-07-20T09:53:11;5.40;;;2.72;;
67867;SDS011;54672;46.096;14.470;2023-07-20T09:55:38;4.55;;;2.60;;
67867;SDS011;54672;46.096;14.470;2023-07-20T09:58:05;5.90;;;3.15;;
67867;SDS011;54672;46.096;14.470;2023-07-20T10:00:32;3.80;;;2.72;;
67867;SDS011;54672;46.096;14.470;2023-07-20T10:02:59;5.50;;;2.60;;
67867;SDS011;54672;46.096;14.470;2023-07-20T10:05:28;5.45;;;2.80;;
67867;SDS011;54672;46.096;14.470;2023-07-20T10:07:59;5.97;;;2.60;;
67867;SDS011;54672;46.096;14.470;2023-07-20T10:10:27;5.15;;;2.90;;
67867;SDS011;54672;46.096;14.470;2023-07-20T10:12:54;3.65;;;2.63;;
67867;SDS011;54672;46.096;14.470;2023-07-20T10:15:39;4.53;;;2.55;;
67867;SDS011;54672;46.096;14.470;2023-07-20T10:18:14;5.18;;;2.70;;
67867;SDS011;54672;46.096;14.470;2023-07-20T10:20:46;3.88;;;2.67;;
67867;SDS011;54672;46.096;14.470;2023-07-20T10:23:13;6.05;;;2.83;;
67867;SDS011;54672;46.096;14.470;2023-07-20T10:25:40;3.88;;;2.50;;
67867;SDS011;54672;46.096;14.470;2023-07-20T10:28:07;4.57;;;2.75;;
67867;SDS011;54672;46.096;14.470;2023-07-20T10:30:34;5.15;;;2.47;;
67867;SDS011;54672;46.096;14.470;2023-07-20T10:33:00;6.40;;;2.78;;
67867;SDS011;54672;46.096;14.470;2023-07-20T10:35:28;5.60;;;2.30;;
67867;SDS011;54672;46.096;14.470;2023-07-20T10:37:54;8.73;;;2.75;;
67867;SDS011;54672;46.096;14.470;2023-07-20T10:40:28;3.13;;;2.25;;
67867;SDS011;54672;46.096;14.470;2023-07-20T10:42:59;3.88;;;2.60;;
67867;SDS011;54672;46.096;14.470;2023-07-20T10:45:53;3.65;;;2.08;;
67867;SDS011;54672;46.096;14.470;2023-07-20T10:48:22;6.00;;;2.67;;
67867;SDS011;54672;46.096;14.470;2023-07-20T10:53:34;3.72;;;2.03;;
67867;SDS011;54672;46.096;14.470;2023-07-20T10:56:07;3.85;;;2.20;;
67867;SDS011;54672;46.096;14.470;2023-07-20T10:58:40;5.30;;;2.58;;
67867;SDS011;54672;46.096;14.470;2023-07-20T11:01:07;4.85;;;2.20;;
67867;SDS011;54672;46.096;14.470;2023-07-20T11:03:33;3.85;;;2.28;;
67867;SDS011;54672;46.096;14.470;2023-07-20T11:08:54;4.07;;;2.47;;
67867;SDS011;54672;46.096;14.470;2023-07-20T11:13:55;4.55;;;2.47;;
67867;SDS011;54672;46.096;14.470;2023-07-20T11:18:59;4.50;;;2.30;;
67867;SDS011;54672;46.096;14.470;2023-07-20T11:21:24;3.72;;;2.53;;
67867;SDS011;54672;46.096;14.470;2023-07-20T11:23:51;2.47;;;1.88;;
67867;SDS011;54672;46.096;14.470;2023-07-20T11:26:17;2.65;;;2.00;;
67867;SDS011;54672;46.096;14.470;2023-07-20T11:28:48;3.83;;;2.47;;
67867;SDS011;54672;46.096;14.470;2023-07-20T11:31:14;5.03;;;2.90;;
67867;SDS011;54672;46.096;14.470;2023-07-20T11:33:41;6.68;;;3.25;;
67867;SDS011;54672;46.096;14.470;2023-07-20T11:36:08;4.57;;;2.53;;
67867;SDS011;54672;46.096;14.470;2023-07-20T11:38:34;5.13;;;2.40;;
67867;SDS011;54672;46.096;14.470;2023-07-20T11:40:59;4.72;;;2.53;;
67867;SDS011;54672;46.096;14.470;2023-07-20T11:43:24;4.00;;;2.22;;
67867;SDS011;54672;46.096;14.470;2023-07-20T11:45:51;4.00;;;2.50;;
67867;SDS011;54672;46.096;14.470;2023-07-20T11:48:16;5.60;;;2.60;;
67867;SDS011;54672;46.096;14.470;2023-07-20T11:50:42;4.03;;;2.50;;
67867;SDS011;54672;46.096;14.470;2023-07-20T11:53:08;4.13;;;2.50;;
67867;SDS011;54672;46.096;14.470;2023-07-20T11:55:34;5.47;;;2.67;;
67867;SDS011;54672;46.096;14.470;2023-07-20T11:58:03;4.13;;;2.90;;
67867;SDS011;54672;46.096;14.470;2023-07-20T12:00:33;4.00;;;2.70;;
67867;SDS011;54672;46.096;14.470;2023-07-20T12:02:59;5.72;;;2.67;;
67867;SDS011;54672;46.096;14.470;2023-07-20T12:05:25;3.67;;;2.28;;
67867;SDS011;54672;46.096;14.470;2023-07-20T12:07:51;4.47;;;2.40;;
67867;SDS011;54672;46.096;14.470;2023-07-20T12:10:23;5.60;;;2.42;;
67867;SDS011;54672;46.096;14.470;2023-07-20T12:12:50;4.63;;;2.88;;
67867;SDS011;54672;46.096;14.470;2023-07-20T12:15:22;5.03;;;2.58;;
67867;SDS011;54672;46.096;14.470;2023-07-20T12:17:58;3.70;;;2.35;;
67867;SDS011;54672;46.096;14.470;2023-07-20T12:22:55;5.57;;;2.50;;
67867;SDS011;54672;46.096;14.470;2023-07-20T12:25:23;5.70;;;2.70;;
67867;SDS011;54672;46.096;14.470;2023-07-20T12:27:49;4.97;;;2.33;;
67867;SDS011;54672;46.096;14.470;2023-07-20T12:30:14;4.20;;;2.75;;
67867;SDS011;54672;46.096;14.470;2023-07-20T12:32:40;3.50;;;2.40;;
67867;SDS011;54672;46.096;14.470;2023-07-20T12:35:05;6.50;;;2.22;;
67867;SDS011;54672;46.096;14.470;2023-07-20T12:37:31;3.42;;;2.50;;
67867;SDS011;54672;46.096;14.470;2023-07-20T12:39:57;3.42;;;2.10;;
67867;SDS011;54672;46.096;14.470;2023-07-20T12:42:22;3.50;;;2.20;;
67867;SDS011;54672;46.096;14.470;2023-07-20T12:44:49;3.25;;;2.20;;
67867;SDS011;54672;46.096;14.470;2023-07-20T12:47:15;4.43;;;2.50;;
67867;SDS011;54672;46.096;14.470;2023-07-20T12:49:44;4.85;;;2.38;;
67867;SDS011;54672;46.096;14.470;2023-07-20T12:52:12;3.83;;;2.40;;
67867;SDS011;54672;46.096;14.470;2023-07-20T12:54:38;4.57;;;2.60;;
67867;SDS011;54672;46.096;14.470;2023-07-20T12:57:04;3.17;;;2.20;;
67867;SDS011;54672;46.096;14.470;2023-07-20T12:59:29;2.95;;;2.10;;
67867;SDS011;54672;46.096;14.470;2023-07-20T13:01:55;5.00;;;2.50;;
67867;SDS011;54672;46.096;14.470;2023-07-20T13:04:20;4.47;;;2.40;;
67867;SDS011;54672;46.096;14.470;2023-07-20T13:06:45;3.92;;;2.60;;
67867;SDS011;54672;46.096;14.470;2023-07-20T13:09:11;4.93;;;2.20;;
67867;SDS011;54672;46.096;14.470;2023-07-20T13:11:36;4.25;;;2.10;;
67867;SDS011;54672;46.096;14.470;2023-07-20T13:14:02;4.93;;;2.47;;
67867;SDS011;54672;46.096;14.470;2023-07-20T13:16:27;3.20;;;2.45;;
67867;SDS011;54672;46.096;14.470;2023-07-20T13:18:53;3.28;;;2.28;;
67867;SDS011;54672;46.096;14.470;2023-07-20T13:21:18;3.60;;;2.70;;
67867;SDS011;54672;46.096;14.470;2023-07-20T13:23:47;4.30;;;2.70;;
67867;SDS011;54672;46.096;14.470;2023-07-20T13:26:13;4.22;;;2.30;;
67867;SDS011;54672;46.096;14.470;2023-07-20T13:28:39;3.97;;;2.78;;
67867;SDS011;54672;46.096;14.470;2023-07-20T13:31:05;4.45;;;2.80;;
67867;SDS011;54672;46.096;14.470;2023-07-20T13:33:30;3.55;;;2.63;;
67867;SDS011;54672;46.096;14.470;2023-07-20T13:35:56;4.43;;;2.53;;
67867;SDS011;54672;46.096;14.470;2023-07-20T13:38:21;4.38;;;2.42;;
67867;SDS011;54672;46.096;14.470;2023-07-20T13:40:47;3.30;;;1.98;;
67867;SDS011;54672;46.096;14.470;2023-07-20T13:43:12;4.53;;;2.33;;
67867;SDS011;54672;46.096;14.470;2023-07-20T13:45:38;4.03;;;2.78;;
67867;SDS011;54672;46.096;14.470;2023-07-20T13:48:03;4.15;;;2.47;;
67867;SDS011;54672;46.096;14.470;2023-07-20T13:50:29;4.53;;;2.50;;
67867;SDS011;54672;46.096;14.470;2023-07-20T13:52:54;4.13;;;2.70;;
67867;SDS011;54672;46.096;14.470;2023-07-20T13:55:20;4.50;;;2.38;;
67867;SDS011;54672;46.096;14.470;2023-07-20T13:57:45;3.28;;;2.47;;
67867;SDS011;54672;46.096;14.470;2023-07-20T14:00:12;3.90;;;2.75;;
67867;SDS011;54672;46.096;14.470;2023-07-20T14:02:38;3.83;;;2.60;;
67867;SDS011;54672;46.096;14.470;2023-07-20T14:05:04;6.55;;;2.95;;
67867;SDS011;54672;46.096;14.470;2023-07-20T14:07:29;4.68;;;2.80;;
67867;SDS011;54672;46.096;14.470;2023-07-20T14:09:55;5.10;;;2.90;;
67867;SDS011;54672;46.096;14.470;2023-07-20T14:12:20;5.10;;;2.72;;
67867;SDS011;54672;46.096;14.470;2023-07-20T14:14:46;5.15;;;2.63;;
67867;SDS011;54672;46.096;14.470;2023-07-20T14:17:11;4.40;;;2.80;;
67867;SDS011;54672;46.096;14.470;2023-07-20T14:19:37;4.00;;;2.75;;
67867;SDS011;54672;46.096;14.470;2023-07-20T14:22:03;5.45;;;2.70;;
67867;SDS011;54672;46.096;14.470;2023-07-20T14:24:29;6.03;;;3.33;;
67867;SDS011;54672;46.096;14.470;2023-07-20T14:26:54;5.95;;;3.00;;
67867;SDS011;54672;46.096;14.470;2023-07-20T14:29:20;2.97;;;2.13;;
67867;SDS011;54672;46.096;14.470;2023-07-20T14:31:46;4.07;;;2.80;;
67867;SDS011;54672;46.096;14.470;2023-07-20T14:34:16;4.32;;;2.75;;
67867;SDS011;54672;46.096;14.470;2023-07-20T14:36:43;4.13;;;2.58;;
67867;SDS011;54672;46.096;14.470;2023-07-20T14:39:09;3.88;;;2.83;;
67867;SDS011;54672;46.096;14.470;2023-07-20T14:41:34;5.20;;;2.58;;
67867;SDS011;54672;46.096;14.470;2023-07-20T14:44:00;4.25;;;2.47;;
67867;SDS011;54672;46.096;14.470;2023-07-20T14:46:25;3.80;;;2.50;;
67867;SDS011;54672;46.096;14.470;2023-07-20T14:48:51;5.40;;;2.80;;